sensor_id;sensor_type;location;lat;lon;timestamp;pressure;altitude;pressure_sealevel;temperature;humidity
45789;BME280;31492;54.856;26.318;2023-03-12T00:03:37;1002.2;;;0.5;68.1
45789;BME280;31492;54.856;26.318;2023-03-12T00:08:39;1002.3;;;0.6;68
45789;BME280;31492;54.856;26.318;2023-03-12T00:13:38;1002.4;;;0.6;67.8
45789;BME280;31492;54.856;26.318;2023-03-12T00:18:45;1002.4;;;0.5;67.6
45789;BME280;31492;54.856;26.318;2023-03-12T00:23:44;1002.5;;;0.5;67.3
45789;BME280;31492;54.856;26.318;2023-03-12T00:28:43;1002.5;;;0.4;67.4
45789;BME280;31492;54.856;26.318;2023-03-12T00:33:39;1002.6;;;0.4;67
45789;BME280;31492;54.856;26.318;2023-03-12T00:38:27;1002.7;;;0.3;66.8
45789;BME280;31492;54.856;26.318;2023-03-12T00:43:43;1002.7;;;0.4;67.1
45789;BME280;31492;54.856;26.318;2023-03-12T00:48:44;1002.8;;;0.4;66.8
45789;BME280;31492;54.856;26.318;2023-03-12T00:53:33;1002.8;;;0.4;66.3
45789;BME280;31492;54.856;26.318;2023-03-12T00:58:27;1002.8;;;0.3;66.5
45789;BME280;31492;54.856;26.318;2023-03-12T01:03:37;1002.9;;;0.3;66.6
45789;BME280;31492;54.856;26.318;2023-03-12T01:08:27;1002.9;;;0.3;67
45789;BME280;31492;54.856;26.318;2023-03-12T01:13:39;1002.9;;;0.3;67
45789;BME280;31492;54.856;26.318;2023-03-12T01:19:07;1002.9;;;0.3;67
45789;BME280;31492;54.856;26.318;2023-03-12T01:23:39;1002.8;;;0.3;66.9
45789;BME280;31492;54.856;26.318;2023-03-12T01:28:37;1002.7;;;0.3;66
45789;BME280;31492;54.856;26.318;2023-03-12T01:33:33;1002.8;;;0.2;66.6
45789;BME280;31492;54.856;26.318;2023-03-12T01:38:33;1002.8;;;0.2;66.7
45789;BME280;31492;54.856;26.318;2023-03-12T01:43:34;1002.9;;;0.2;66.5
45789;BME280;31492;54.856;26.318;2023-03-12T01:48:28;1002.9;;;0.2;66.8
45789;BME280;31492;54.856;26.318;2023-03-12T01:53:56;1003;;;0.2;66.6
45789;BME280;31492;54.856;26.318;2023-03-12T01:58:34;1003.1;;;0.2;66.8
45789;BME280;31492;54.856;26.318;2023-03-12T02:03:33;1003.2;;;0.2;67
45789;BME280;31492;54.856;26.318;2023-03-12T02:08:38;1003.2;;;0.1;67
45789;BME280;31492;54.856;26.318;2023-03-12T02:13:27;1003.2;;;0.1;66.7
45789;BME280;31492;54.856;26.318;2023-03-12T02:18:27;1003.3;;;0.1;66.6
45789;BME280;31492;54.856;26.318;2023-03-12T02:23:40;1003.3;;;0;66.4
45789;BME280;31492;54.856;26.318;2023-03-12T02:28:43;1003.4;;;0;66.2
45789;BME280;31492;54.856;26.318;2023-03-12T02:33:28;1003.5;;;0;66.1
45789;BME280;31492;54.856;26.318;2023-03-12T02:38:30;1003.5;;;-0.1;66
45789;BME280;31492;54.856;26.318;2023-03-12T02:43:27;1003.6;;;-0.2;66.1
45789;BME280;31492;54.856;26.318;2023-03-12T02:48:27;1003.7;;;-0.3;65.7
45789;BME280;31492;54.856;26.318;2023-03-12T02:53:38;1003.8;;;-0.4;66.2
45789;BME280;31492;54.856;26.318;2023-03-12T02:58:37;1003.9;;;-0.4;66
45789;BME280;31492;54.856;26.318;2023-03-12T03:03:27;1003.9;;;-0.4;66
45789;BME280;31492;54.856;26.318;2023-03-12T03:08:37;1004;;;-0.4;65.4
45789;BME280;31492;54.856;26.318;2023-03-12T03:13:27;1004;;;-0.5;65.2
45789;BME280;31492;54.856;26.318;2023-03-12T03:18:28;1004;;;-0.6;65.3
45789;BME280;31492;54.856;26.318;2023-03-12T03:23:44;1004.1;;;-0.6;65.3
45789;BME280;31492;54.856;26.318;2023-03-12T03:28:33;1004.1;;;-0.7;65.4
45789;BME280;31492;54.856;26.318;2023-03-12T03:33:28;1004.1;;;-0.8;65.4
45789;BME280;31492;54.856;26.318;2023-03-12T03:38:33;1004.2;;;-0.9;65.3
45789;BME280;31492;54.856;26.318;2023-03-12T03:43:28;1004.2;;;-1;65.2
45789;BME280;31492;54.856;26.318;2023-03-12T03:48:28;1004.2;;;-1.1;65.5
45789;BME280;31492;54.856;26.318;2023-03-12T03:53:27;1004.2;;;-1.2;65.2
45789;BME280;31492;54.856;26.318;2023-03-12T03:58:38;1004.2;;;-1.2;65
45789;BME280;31492;54.856;26.318;2023-03-12T04:03:39;1004.2;;;-1.2;65.1
45789;BME280;31492;54.856;26.318;2023-03-12T04:08:43;1004.2;;;-1.3;65.3
45789;BME280;31492;54.856;26.318;2023-03-12T04:13:44;1004.3;;;-1.4;65.2
45789;BME280;31492;54.856;26.318;2023-03-12T04:18:33;1004.3;;;-1.4;65.6
45789;BME280;31492;54.856;26.318;2023-03-12T04:23:27;1004.3;;;-1.5;65.5
45789;BME280;31492;54.856;26.318;2023-03-12T04:28:28;1004.3;;;-1.5;65.5
45789;BME280;31492;54.856;26.318;2023-03-12T04:53:39;1004.3;;;-1.5;65.5
45789;BME280;31492;54.856;26.318;2023-03-12T04:58:27;1004.3;;;-1.5;65.5
45789;BME280;31492;54.856;26.318;2023-03-12T09:48:30;1004.3;;;-1.5;65.5
45789;BME280;31492;54.856;26.318;2023-03-12T09:53:36;1004.3;;;-1.5;65.5
45789;BME280;31492;54.856;26.318;2023-03-12T10:08:35;1004.3;;;-1.5;65.5
45789;BME280;31492;54.856;26.318;2023-03-12T10:13:32;1004.3;;;2.2;66
45789;BME280;31492;54.856;26.318;2023-03-12T10:18:55;1004.3;;;2.2;66
45789;BME280;31492;54.856;26.318;2023-03-12T10:53:28;1004.1;;;3.6;61.3
45789;BME280;31492;54.856;26.318;2023-03-12T10:58:30;1004.4;;;3.8;58.2
45789;BME280;31492;54.856;26.318;2023-03-12T11:03:34;1004.3;;;4.6;55.7
45789;BME280;31492;54.856;26.318;2023-03-12T11:09:04;1004.3;;;4.8;54.3
45789;BME280;31492;54.856;26.318;2023-03-12T11:13:46;1004.3;;;5.1;54
45789;BME280;31492;54.856;26.318;2023-03-12T11:18:53;1004.4;;;5.3;49.3
45789;BME280;31492;54.856;26.318;2023-03-12T11:23:28;1004.5;;;4.7;50.1
45789;BME280;31492;54.856;26.318;2023-03-12T11:28:45;1004.6;;;4.3;51.2
45789;BME280;31492;54.856;26.318;2023-03-12T11:33:28;1004.6;;;4;51.1
45789;BME280;31492;54.856;26.318;2023-03-12T11:38:37;1004.6;;;4.2;49.7
45789;BME280;31492;54.856;26.318;2023-03-12T11:43:54;1004.7;;;4;49.6
45789;BME280;31492;54.856;26.318;2023-03-12T11:48:30;1004.8;;;3.7;51.2
45789;BME280;31492;54.856;26.318;2023-03-12T11:53:52;1004.8;;;3.8;50.9
45789;BME280;31492;54.856;26.318;2023-03-12T11:58:31;1005.1;;;4;49.3
45789;BME280;31492;54.856;26.318;2023-03-12T12:03:34;1005.3;;;4.1;49.2
45789;BME280;31492;54.856;26.318;2023-03-12T12:08:57;1005.3;;;4.1;50.2
45789;BME280;31492;54.856;26.318;2023-03-12T12:13:42;1005.3;;;4;50.1
45789;BME280;31492;54.856;26.318;2023-03-12T12:18:40;1005.4;;;4;49.8
45789;BME280;31492;54.856;26.318;2023-03-12T12:23:40;1005.5;;;3.8;51.9
45789;BME280;31492;54.856;26.318;2023-03-12T12:28:53;1005.7;;;3.8;52.3
45789;BME280;31492;54.856;26.318;2023-03-12T14:38:46;1005.7;;;3.8;52.3
45789;BME280;31492;54.856;26.318;2023-03-12T14:43:49;1007.9;;;1.4;58.4
45789;BME280;31492;54.856;26.318;2023-03-12T14:48:28;1007.9;;;1.6;57.8
45789;BME280;31492;54.856;26.318;2023-03-12T14:53:38;1007.9;;;1.7;57.6
45789;BME280;31492;54.856;26.318;2023-03-12T14:58:48;1008;;;1.8;57.5
45789;BME280;31492;54.856;26.318;2023-03-12T15:03:40;1008;;;1.9;57.8
45789;BME280;31492;54.856;26.318;2023-03-12T15:08:28;1008.1;;;1.9;57.3
45789;BME280;31492;54.856;26.318;2023-03-12T15:13:28;1008.1;;;2;57.6
45789;BME280;31492;54.856;26.318;2023-03-12T15:18:28;1008.1;;;2;56.9
45789;BME280;31492;54.856;26.318;2023-03-12T15:23:28;1008.2;;;2;56.1
45789;BME280;31492;54.856;26.318;2023-03-12T15:28:28;1008.4;;;2;56.3
45789;BME280;31492;54.856;26.318;2023-03-12T15:33:28;1008.4;;;2.1;56.4
45789;BME280;31492;54.856;26.318;2023-03-12T15:38:28;1008.5;;;2;56.8
45789;BME280;31492;54.856;26.318;2023-03-12T15:43:40;1008.5;;;1.9;57.1
45789;BME280;31492;54.856;26.318;2023-03-12T15:48:38;1008.6;;;1.7;57.3
45789;BME280;31492;54.856;26.318;2023-03-12T15:53:29;1008.7;;;1.7;56.4
45789;BME280;31492;54.856;26.318;2023-03-12T15:58:46;1008.7;;;1.6;56.5
45789;BME280;31492;54.856;26.318;2023-03-12T16:04:00;1008.9;;;1.5;56.7
45789;BME280;31492;54.856;26.318;2023-03-12T16:08:40;1009;;;1.5;56.7
45789;BME280;31492;54.856;26.318;2023-03-12T16:13:40;1009.1;;;1.4;56.6
45789;BME280;31492;54.856;26.318;2023-03-12T16:18:40;1009.2;;;1.3;56.3
45789;BME280;31492;54.856;26.318;2023-03-12T16:23:28;1009.3;;;1.2;56.3
45789;BME280;31492;54.856;26.318;2023-03-12T16:28:46;1009.4;;;1.1;55.8
45789;BME280;31492;54.856;26.318;2023-03-12T16:33:40;1009.5;;;1;56.5
45789;BME280;31492;54.856;26.318;2023-03-12T16:38:28;1009.7;;;1;56.9
45789;BME280;31492;54.856;26.318;2023-03-12T16:43:28;1009.8;;;1;56.4
45789;BME280;31492;54.856;26.318;2023-03-12T16:48:58;1009.9;;;0.9;56.6
45789;BME280;31492;54.856;26.318;2023-03-12T16:54:00;1010;;;0.8;57
45789;BME280;31492;54.856;26.318;2023-03-12T16:58:28;1010.1;;;0.9;56.2
45789;BME280;31492;54.856;26.318;2023-03-12T17:03:38;1010.2;;;0.8;56.4
45789;BME280;31492;54.856;26.318;2023-03-12T17:08:28;1010.2;;;0.7;56.9
45789;BME280;31492;54.856;26.318;2023-03-12T17:13:28;1010.3;;;0.7;56.7
45789;BME280;31492;54.856;26.318;2023-03-12T17:18:28;1010.5;;;0.7;56.4
45789;BME280;31492;54.856;26.318;2023-03-12T17:23:40;1010.6;;;0.6;56.8
45789;BME280;31492;54.856;26.318;2023-03-12T17:28:28;1010.7;;;0.5;57.1
45789;BME280;31492;54.856;26.318;2023-03-12T17:33:28;1010.8;;;0.4;57
45789;BME280;31492;54.856;26.318;2023-03-12T17:38:34;1010.9;;;0.4;56.5
45789;BME280;31492;54.856;26.318;2023-03-12T17:43:28;1011.1;;;0.3;57
45789;BME280;31492;54.856;26.318;2023-03-12T17:49:12;1011.2;;;0.3;56.9
45789;BME280;31492;54.856;26.318;2023-03-12T17:53:40;1011.3;;;0.2;56.9
45789;BME280;31492;54.856;26.318;2023-03-12T17:58:46;1011.4;;;0.1;57.5
45789;BME280;31492;54.856;26.318;2023-03-12T18:03:46;1011.6;;;0.1;57.7
45789;BME280;31492;54.856;26.318;2023-03-12T18:08:34;1011.7;;;0.1;57.9
45789;BME280;31492;54.856;26.318;2023-03-12T18:13:40;1011.8;;;0;58.3
45789;BME280;31492;54.856;26.318;2023-03-12T18:18:28;1011.9;;;0;58.4
45789;BME280;31492;54.856;26.318;2023-03-12T18:23:28;1011.9;;;-0.1;58.7
45789;BME280;31492;54.856;26.318;2023-03-12T18:28:40;1012;;;-0.1;58.9
45789;BME280;31492;54.856;26.318;2023-03-12T18:38:28;1012.3;;;-0.1;58.9
45789;BME280;31492;54.856;26.318;2023-03-12T18:43:28;1012.4;;;-0.2;58.9
45789;BME280;31492;54.856;26.318;2023-03-12T18:48:28;1012.4;;;-0.2;58.9
